Time;durP1;ratioP1;P1;durP2;ratioP2;P2;SDS_P1;SDS_P2;PMS_P1;PMS_P2;Temp;Humidity;BMP_temperature;BMP_pressure;BME280_temperature;BME280_humidity;BME280_pressure;Samples;Min_cycle;Max_cycle;Signal;HPM_P1;HPM_P2
2023/12/09 00:02:14;;;;;;;51.67;19.27;;;-2.10;99.90;;;;;;4954744;29;20284;-82
2023/12/09 00:05:02;;;;;;;47.90;18.30;;;-2.10;99.90;;;;;;4954016;29;20205;-82
2023/12/09 00:07:50;;;;;;;50.93;19.70;;;-1.90;99.90;;;;;;4940399;29;20274;-82
2023/12/09 00:10:38;;;;;;;57.53;19.90;;;-2.00;99.90;;;;;;4940811;29;20218;-81
2023/12/09 00:13:25;;;;;;;51.53;20.47;;;-2.00;99.90;;;;;;4952733;29;20257;-81
2023/12/09 00:16:13;;;;;;;54.97;20.30;;;-2.00;99.90;;;;;;4953166;29;20299;-81
2023/12/09 00:19:01;;;;;;;51.47;19.43;;;-1.90;99.90;;;;;;4940507;29;20205;-81
2023/12/09 00:21:49;;;;;;;53.40;20.43;;;-2.00;99.90;;;;;;4940591;29;20798;-81
2023/12/09 00:24:37;;;;;;;56.93;19.57;;;-2.00;99.90;;;;;;4953132;29;20196;-82
2023/12/09 00:27:24;;;;;;;55.10;20.03;;;-2.00;99.90;;;;;;4940491;29;20742;-81
2023/12/09 00:30:12;;;;;;;56.30;21.13;;;-2.10;99.90;;;;;;4953502;29;20194;-81
2023/12/09 00:33:00;;;;;;;59.87;21.73;;;-2.00;99.90;;;;;;4955278;28;20219;-81
2023/12/09 00:35:48;;;;;;;50.47;19.87;;;-2.00;99.90;;;;;;4955459;28;20198;-81
2023/12/09 00:38:36;;;;;;;53.47;20.10;;;-2.00;99.90;;;;;;4953719;29;20212;-82
2023/12/09 00:41:24;;;;;;;60.47;20.30;;;-1.90;99.90;;;;;;4940347;29;20211;-81
2023/12/09 00:44:12;;;;;;;57.83;19.90;;;-2.00;99.90;;;;;;4940497;29;20264;-81
2023/12/09 00:46:59;;;;;;;57.00;20.17;;;-2.10;99.90;;;;;;4953708;29;20194;-82
2023/12/09 00:49:46;;;;;;;58.07;21.47;;;-2.10;99.90;;;;;;4957103;29;20225;-81
2023/12/09 00:52:34;;;;;;;59.47;20.80;;;-2.10;99.90;;;;;;4958590;28;20277;-81
2023/12/09 00:55:22;;;;;;;61.87;21.00;;;-2.10;99.90;;;;;;4957646;29;20666;-82
2023/12/09 00:58:09;;;;;;;60.00;21.03;;;-2.20;99.90;;;;;;4959271;28;20263;-81
2023/12/09 01:00:57;;;;;;;61.37;22.43;;;-2.10;99.90;;;;;;4958349;29;20285;-81
2023/12/09 01:03:44;;;;;;;66.70;21.00;;;-2.10;99.90;;;;;;4944817;29;20194;-82
2023/12/09 01:06:32;;;;;;;65.03;21.87;;;-2.00;99.90;;;;;;4957566;29;20559;-81
2023/12/09 01:09:19;;;;;;;63.37;21.77;;;-2.10;99.90;;;;;;4943701;29;20197;-82
2023/12/09 01:12:07;;;;;;;71.37;21.73;;;-2.20;99.90;;;;;;4958421;28;20244;-82
2023/12/09 01:14:54;;;;;;;63.67;21.87;;;-2.30;99.90;;;;;;4956847;29;20283;-82
2023/12/09 01:17:42;;;;;;;68.90;22.20;;;-2.30;99.90;;;;;;4943813;29;20198;-81
2023/12/09 01:20:29;;;;;;;66.33;22.10;;;-2.40;99.90;;;;;;4957744;29;20285;-81
2023/12/09 01:23:16;;;;;;;73.07;22.70;;;-2.40;99.90;;;;;;4943581;29;20287;-82
2023/12/09 01:26:04;;;;;;;69.63;22.43;;;-2.40;99.90;;;;;;4957399;29;20289;-82
2023/12/09 01:28:51;;;;;;;72.03;23.40;;;-2.40;99.90;;;;;;4956390;29;20195;-81
2023/12/09 01:31:39;;;;;;;71.43;22.83;;;-2.40;99.90;;;;;;4955885;29;20277;-82
2023/12/09 01:34:26;;;;;;;68.37;22.27;;;-2.40;99.90;;;;;;4943011;29;20236;-81
2023/12/09 01:37:13;;;;;;;73.20;23.03;;;-2.40;99.90;;;;;;4957855;28;20687;-81
2023/12/09 01:40:01;;;;;;;68.97;22.53;;;-2.40;99.90;;;;;;4956952;29;20200;-81
2023/12/09 01:42:49;;;;;;;73.27;21.70;;;-2.40;99.90;;;;;;4943055;29;20227;-81
2023/12/09 01:45:36;;;;;;;74.17;22.17;;;-2.50;99.90;;;;;;4956650;29;20233;-81
2023/12/09 01:48:25;;;;;;;72.90;22.60;;;-2.30;99.90;;;;;;4956494;29;20198;-81
2023/12/09 01:51:14;;;;;;;73.33;22.87;;;-2.40;99.90;;;;;;4956493;29;20597;-81
2023/12/09 01:54:02;;;;;;;77.43;21.07;;;-2.40;99.90;;;;;;4956590;29;20224;-81
2023/12/09 01:56:50;;;;;;;75.60;22.90;;;-2.40;99.90;;;;;;4943074;29;20234;-82
2023/12/09 01:59:37;;;;;;;70.23;21.43;;;-2.30;99.90;;;;;;4957013;28;20199;-82
2023/12/09 02:02:25;;;;;;;71.73;22.10;;;-2.40;99.90;;;;;;4956223;29;20347;-82
2023/12/09 02:05:13;;;;;;;68.87;21.73;;;-2.40;99.90;;;;;;4943233;29;20247;-82
2023/12/09 02:08:00;;;;;;;73.40;20.90;;;-2.40;99.90;;;;;;4954937;29;20195;-81
2023/12/09 02:11:08;;;;;;;71.53;21.17;;;-2.40;99.90;;;;;;4942360;29;20750;-81
2023/12/09 02:14:01;;;;;;;67.27;21.07;;;-2.40;99.90;;;;;;4956579;29;20273;-81
2023/12/09 02:17:03;;;;;;;69.37;20.33;;;-2.40;99.90;;;;;;4942530;29;20277;-81
2023/12/09 02:19:51;;;;;;;73.27;20.97;;;-2.50;99.90;;;;;;4957249;28;20672;-81
2023/12/09 02:22:38;;;;;;;73.00;19.00;;;-2.60;99.90;;;;;;4956352;29;21044;-81
2023/12/09 02:25:26;;;;;;;72.80;21.50;;;-2.60;99.90;;;;;;4942470;29;20846;-81
2023/12/09 02:28:20;;;;;;;74.93;21.63;;;-2.60;99.90;;;;;;4955575;29;20283;-82
2023/12/09 02:31:21;;;;;;;76.07;21.23;;;-2.60;99.90;;;;;;4955916;29;20206;-82
2023/12/09 02:34:09;;;;;;;70.73;21.00;;;-2.60;99.90;;;;;;4955505;29;20579;-82
2023/12/09 02:36:58;;;;;;;67.40;20.53;;;-2.60;99.90;;;;;;4941880;29;20203;-81
2023/12/09 02:39:46;;;;;;;77.23;22.30;;;-2.60;99.90;;;;;;4955940;29;20201;-82
2023/12/09 02:42:33;;;;;;;70.93;22.20;;;-2.50;99.90;;;;;;4955998;29;20221;-82
2023/12/09 02:45:21;;;;;;;76.10;21.53;;;-2.60;99.90;;;;;;4955223;29;20198;-82
2023/12/09 02:48:08;;;;;;;76.30;21.13;;;-2.60;99.90;;;;;;4942081;29;20689;-81
2023/12/09 02:50:56;;;;;;;75.27;21.47;;;-2.60;99.90;;;;;;4942251;29;20769;-81
2023/12/09 02:53:44;;;;;;;74.57;21.53;;;-2.50;99.90;;;;;;4942001;29;20746;-82
2023/12/09 02:56:32;;;;;;;77.30;21.30;;;-2.50;99.90;;;;;;4942276;29;20705;-81
2023/12/09 02:59:19;;;;;;;76.57;21.00;;;-2.50;99.90;;;;;;4954865;29;20542;-80
2023/12/09 03:02:07;;;;;;;69.10;20.23;;;-2.50;99.90;;;;;;4942542;29;20388;-81
2023/12/09 03:04:55;;;;;;;64.83;20.20;;;-2.60;99.90;;;;;;4941895;29;20389;-81
2023/12/09 03:07:42;;;;;;;74.03;21.93;;;-2.80;99.90;;;;;;4954220;29;20192;-82
2023/12/09 03:10:29;;;;;;;76.07;20.83;;;-2.70;99.90;;;;;;4955895;28;20199;-81
2023/12/09 03:13:17;;;;;;;75.13;21.07;;;-2.70;99.90;;;;;;4941555;29;20249;-81
2023/12/09 03:16:05;;;;;;;72.90;21.27;;;-2.70;99.90;;;;;;4956562;28;20197;-82
2023/12/09 03:18:52;;;;;;;73.77;21.70;;;-2.70;99.90;;;;;;4940950;29;20277;-81
2023/12/09 03:21:40;;;;;;;71.97;19.80;;;-2.60;99.90;;;;;;4956077;28;20683;-81
2023/12/09 03:24:27;;;;;;;78.73;21.83;;;-2.60;99.90;;;;;;4954065;29;20207;-82
2023/12/09 03:27:15;;;;;;;79.77;20.97;;;-2.50;99.90;;;;;;4955358;29;20227;-82
2023/12/09 03:30:03;;;;;;;67.07;20.53;;;-2.50;99.90;;;;;;4956333;28;20215;-82
2023/12/09 03:32:50;;;;;;;69.53;20.50;;;-2.50;99.90;;;;;;4955610;29;20199;-82
2023/12/09 03:35:38;;;;;;;72.90;20.47;;;-2.50;99.90;;;;;;4954252;29;20513;-81
2023/12/09 03:38:26;;;;;;;68.63;20.17;;;-2.50;99.90;;;;;;4940628;29;20678;-81
2023/12/09 03:41:13;;;;;;;67.10;20.33;;;-2.50;99.90;;;;;;4953662;29;20214;-82
2023/12/09 03:44:01;;;;;;;70.93;21.00;;;-2.50;99.90;;;;;;4940943;29;20253;-82
2023/12/09 03:46:49;;;;;;;73.93;21.00;;;-2.50;99.90;;;;;;4953991;29;20265;-82
2023/12/09 03:49:36;;;;;;;65.53;21.40;;;-2.50;99.90;;;;;;4954287;29;20211;-81
2023/12/09 03:52:24;;;;;;;78.20;22.07;;;-2.50;99.90;;;;;;4954462;29;20206;-82
2023/12/09 03:55:14;;;;;;;77.47;20.83;;;-2.40;99.90;;;;;;4953024;29;20228;-81
2023/12/09 03:58:01;;;;;;;81.00;20.87;;;-2.40;99.90;;;;;;4953091;29;20206;-81
2023/12/09 04:00:49;;;;;;;67.73;20.63;;;-2.40;99.90;;;;;;4954787;29;20287;-81
2023/12/09 04:03:37;;;;;;;67.70;20.07;;;-2.50;99.90;;;;;;4954206;29;20199;-82
2023/12/09 04:06:25;;;;;;;73.03;21.27;;;-2.40;99.90;;;;;;4953466;29;20549;-81
2023/12/09 04:09:12;;;;;;;69.13;19.90;;;-2.40;99.90;;;;;;4954538;29;20201;-81
2023/12/09 04:12:00;;;;;;;76.37;21.33;;;-2.40;99.90;;;;;;4939897;29;20313;-81
2023/12/09 04:14:47;;;;;;;70.77;18.80;;;-2.40;99.90;;;;;;4955022;28;20452;-81
2023/12/09 04:17:37;;;;;;;76.70;21.20;;;-2.50;99.90;;;;;;4940358;29;20202;-81
2023/12/09 04:20:24;;;;;;;68.80;20.23;;;-2.40;99.90;;;;;;4952656;29;20190;-81
2023/12/09 04:23:11;;;;;;;72.73;19.83;;;-2.50;99.90;;;;;;4939098;29;20607;-81
2023/12/09 04:25:59;;;;;;;76.53;21.33;;;-2.50;99.90;;;;;;4939664;29;20295;-82
2023/12/09 04:28:47;;;;;;;71.00;20.70;;;-2.40;99.90;;;;;;4940760;29;20202;-81
2023/12/09 04:31:34;;;;;;;70.83;20.27;;;-2.40;99.90;;;;;;4952490;29;20672;-82
2023/12/09 04:34:21;;;;;;;76.30;20.57;;;-2.40;99.90;;;;;;4953156;29;20249;-83
2023/12/09 04:37:09;;;;;;;69.93;20.47;;;-2.50;99.90;;;;;;4953304;29;20202;-82
2023/12/09 04:39:56;;;;;;;68.13;21.10;;;-2.40;99.90;;;;;;4954640;28;20249;-81
2023/12/09 04:42:44;;;;;;;73.80;21.17;;;-2.50;99.90;;;;;;4953412;29;20259;-81
2023/12/09 04:45:32;;;;;;;68.23;21.07;;;-2.50;99.90;;;;;;4954426;28;20194;-81
2023/12/09 04:48:19;;;;;;;71.53;21.07;;;-2.50;99.90;;;;;;4939637;29;20200;-82
2023/12/09 04:51:06;;;;;;;69.17;21.13;;;-2.50;99.90;;;;;;4953686;29;20230;-81
2023/12/09 04:53:54;;;;;;;67.30;20.30;;;-2.40;99.90;;;;;;4940158;29;20215;-81
2023/12/09 04:56:41;;;;;;;71.00;21.60;;;-2.50;99.90;;;;;;4953041;29;20321;-81
2023/12/09 04:59:30;;;;;;;70.23;20.10;;;-2.50;99.90;;;;;;4940219;29;20205;-81
2023/12/09 05:02:20;;;;;;;65.70;20.97;;;-2.60;99.90;;;;;;4954704;29;20261;-82
2023/12/09 05:05:08;;;;;;;74.13;21.67;;;-2.50;99.90;;;;;;4940259;29;20572;-81
2023/12/09 05:07:55;;;;;;;70.97;19.23;;;-2.40;99.90;;;;;;4954038;29;20196;-81
2023/12/09 05:10:43;;;;;;;71.07;20.33;;;-2.50;99.90;;;;;;4952925;29;20596;-81
2023/12/09 05:13:31;;;;;;;71.07;21.17;;;-2.50;99.90;;;;;;4952733;29;20624;-82
2023/12/09 05:16:18;;;;;;;68.47;20.17;;;-2.50;99.90;;;;;;4952863;29;20194;-82
2023/12/09 05:19:06;;;;;;;70.57;21.03;;;-2.60;99.90;;;;;;4953114;29;20544;-81
2023/12/09 05:21:54;;;;;;;67.30;20.73;;;-2.60;99.90;;;;;;4940320;29;20278;-82
2023/12/09 05:24:42;;;;;;;73.40;20.83;;;-2.60;99.90;;;;;;4954000;29;20631;-82
2023/12/09 05:27:29;;;;;;;70.07;20.70;;;-2.60;99.90;;;;;;4954174;28;20230;-80
2023/12/09 05:30:17;;;;;;;65.90;20.57;;;-2.60;99.90;;;;;;4955000;28;20196;-82
2023/12/09 05:33:05;;;;;;;74.43;21.00;;;-2.50;99.90;;;;;;4953929;29;20221;-82
2023/12/09 05:35:52;;;;;;;67.27;20.50;;;-2.50;99.90;;;;;;4955953;29;20203;-81
2023/12/09 05:38:41;;;;;;;73.60;21.03;;;-2.50;99.90;;;;;;4956752;29;20209;-81
2023/12/09 05:41:28;;;;;;;68.73;19.33;;;-2.50;99.90;;;;;;4957017;29;20218;-81
2023/12/09 05:44:15;;;;;;;68.93;18.97;;;-2.60;99.90;;;;;;4958323;28;20198;-82
2023/12/09 05:47:03;;;;;;;70.37;20.20;;;-2.60;99.90;;;;;;4956381;29;20194;-82
2023/12/09 05:49:50;;;;;;;78.63;21.10;;;-2.60;99.90;;;;;;4943307;29;20567;-82
2023/12/09 05:52:40;;;;;;;75.07;21.80;;;-2.50;99.90;;;;;;4943271;29;20209;-83
2023/12/09 05:55:28;;;;;;;74.57;20.50;;;-2.60;99.90;;;;;;4956541;29;20222;-82
2023/12/09 05:58:15;;;;;;;69.27;20.10;;;-2.50;99.90;;;;;;4943253;29;20202;-82
2023/12/09 06:01:03;;;;;;;66.60;20.43;;;-2.50;99.90;;;;;;4943711;29;20243;-82
2023/12/09 06:03:50;;;;;;;74.00;20.83;;;-2.50;99.90;;;;;;4956038;29;20210;-82
2023/12/09 06:06:38;;;;;;;79.00;20.93;;;-2.50;99.90;;;;;;4956707;29;20220;-82
2023/12/09 06:09:25;;;;;;;71.50;22.50;;;-2.40;99.90;;;;;;4957205;28;20316;-81
2023/12/09 06:12:13;;;;;;;79.37;22.00;;;-2.30;99.90;;;;;;4956302;29;20225;-81
2023/12/09 06:15:00;;;;;;;70.77;21.23;;;-2.40;99.90;;;;;;4957394;28;20220;-82
2023/12/09 06:17:47;;;;;;;72.73;21.77;;;-2.40;99.90;;;;;;4957569;28;20253;-82
2023/12/09 06:20:35;;;;;;;77.97;22.03;;;-2.40;99.90;;;;;;4955974;29;20253;-82
2023/12/09 06:23:22;;;;;;;78.20;22.00;;;-2.40;99.90;;;;;;4956933;28;20572;-82
2023/12/09 06:26:10;;;;;;;78.33;22.40;;;-2.40;99.90;;;;;;4957458;28;20226;-83
2023/12/09 06:28:57;;;;;;;75.43;21.07;;;-2.40;99.90;;;;;;4956231;29;20206;-83
2023/12/09 06:31:44;;;;;;;69.50;20.97;;;-2.30;99.90;;;;;;4957385;28;20230;-82
2023/12/09 06:34:31;;;;;;;77.80;22.67;;;-2.40;99.90;;;;;;4956538;28;20313;-82
2023/12/09 06:37:19;;;;;;;78.13;22.00;;;-2.40;99.90;;;;;;4954872;29;20198;-82
2023/12/09 06:40:07;;;;;;;70.33;22.20;;;-2.40;99.90;;;;;;4955696;29;20201;-82
2023/12/09 06:42:55;;;;;;;77.27;21.30;;;-2.50;99.90;;;;;;4954942;29;20198;-82
2023/12/09 06:45:42;;;;;;;70.33;20.00;;;-2.50;99.90;;;;;;4954100;28;20258;-81
2023/12/09 06:48:29;;;;;;;67.20;20.83;;;-2.50;99.90;;;;;;4955952;29;20199;-82
2023/12/09 06:51:17;;;;;;;72.17;21.73;;;-2.50;99.90;;;;;;4942472;28;20203;-81
2023/12/09 06:54:05;;;;;;;77.80;21.83;;;-2.50;99.90;;;;;;4956189;29;20224;-81
2023/12/09 06:56:52;;;;;;;79.90;21.77;;;-2.50;99.90;;;;;;4954683;29;20271;-81
2023/12/09 06:59:41;;;;;;;80.50;22.60;;;-2.50;99.90;;;;;;4955426;29;20284;-81
2023/12/09 07:02:28;;;;;;;83.87;22.70;;;-2.40;99.90;;;;;;4954680;29;20293;-82
2023/12/09 07:05:34;;;;;;;71.47;22.10;;;-2.40;99.90;;;;;;4955226;29;20546;-82
2023/12/09 07:08:21;;;;;;;80.70;22.87;;;-2.40;99.90;;;;;;4955525;29;20298;-81
2023/12/09 07:11:09;;;;;;;78.10;21.23;;;-2.40;99.90;;;;;;4941726;29;20306;-81
2023/12/09 07:13:56;;;;;;;77.80;22.30;;;-2.40;99.90;;;;;;4956137;29;20211;-81
2023/12/09 07:16:44;;;;;;;80.77;22.00;;;-2.40;99.90;;;;;;4955248;29;20205;-82
2023/12/09 07:19:32;;;;;;;74.63;23.40;;;-2.40;99.90;;;;;;4940752;29;20210;-81
2023/12/09 07:22:19;;;;;;;85.60;22.87;;;-2.30;99.90;;;;;;4941229;29;20194;-82
2023/12/09 07:25:07;;;;;;;83.00;23.23;;;-2.30;99.90;;;;;;4954915;29;20321;-82
2023/12/09 07:27:54;;;;;;;80.23;22.23;;;-2.30;99.90;;;;;;4941202;29;20194;-81
2023/12/09 07:30:42;;;;;;;87.20;22.87;;;-2.30;99.90;;;;;;4955088;29;20225;-82
2023/12/09 07:33:29;;;;;;;79.17;21.77;;;-2.30;99.90;;;;;;4955488;29;20277;-82
2023/12/09 07:36:17;;;;;;;87.50;23.43;;;-2.30;99.90;;;;;;4953900;29;20316;-81
2023/12/09 07:39:04;;;;;;;77.60;22.63;;;-2.30;99.90;;;;;;4954153;29;20672;-81
2023/12/09 07:41:52;;;;;;;85.13;21.50;;;-2.30;99.90;;;;;;4940958;29;20225;-81
2023/12/09 07:44:40;;;;;;;78.83;21.77;;;-2.20;99.90;;;;;;4940766;29;20202;-82
2023/12/09 07:47:27;;;;;;;75.90;22.90;;;-2.20;99.90;;;;;;4955677;28;20204;-81
2023/12/09 07:50:14;;;;;;;81.53;22.87;;;-2.10;99.90;;;;;;4953875;29;20354;-81
2023/12/09 07:53:02;;;;;;;72.37;21.40;;;-2.10;99.90;;;;;;4954425;29;20643;-81
2023/12/09 07:55:50;;;;;;;84.17;23.13;;;-2.10;99.90;;;;;;4953675;29;20687;-81
2023/12/09 07:58:37;;;;;;;81.67;23.60;;;-2.10;99.90;;;;;;4953679;28;20280;-81
2023/12/09 08:01:26;;;;;;;78.80;22.83;;;-2.10;99.90;;;;;;4954149;29;20209;-80
2023/12/09 08:04:14;;;;;;;79.90;22.43;;;-2.10;99.90;;;;;;4940263;29;20246;-80
2023/12/09 08:07:02;;;;;;;74.30;21.87;;;-2.10;99.90;;;;;;4953765;29;20196;-81
2023/12/09 08:09:49;;;;;;;79.70;22.20;;;-2.10;99.90;;;;;;4953594;29;20687;-81
2023/12/09 08:12:37;;;;;;;73.33;21.23;;;-2.20;99.90;;;;;;4938750;29;20293;-81
2023/12/09 08:15:24;;;;;;;88.43;23.10;;;-2.10;99.90;;;;;;4940665;29;20225;-81
2023/12/09 08:18:12;;;;;;;78.13;22.73;;;-2.10;99.90;;;;;;4940240;29;20198;-81
2023/12/09 08:21:01;;;;;;;84.63;23.50;;;-2.10;99.90;;;;;;4953690;29;20202;-81
2023/12/09 08:23:49;;;;;;;90.57;23.87;;;-2.10;99.90;;;;;;4955063;28;20232;-81
2023/12/09 08:26:37;;;;;;;78.73;23.23;;;-2.10;99.90;;;;;;4953024;29;20254;-81
2023/12/09 08:29:25;;;;;;;92.57;23.90;;;-2.10;99.90;;;;;;4953861;29;20198;-82
2023/12/09 08:32:15;;;;;;;96.57;23.83;;;-2.10;99.90;;;;;;4940754;29;20205;-82
2023/12/09 08:35:04;;;;;;;85.33;25.00;;;-2.10;99.90;;;;;;4939425;29;20218;-81
2023/12/09 08:37:56;;;;;;;87.30;22.43;;;-2.10;99.90;;;;;;4941130;29;20199;-82
2023/12/09 08:40:43;;;;;;;86.40;23.97;;;-2.10;99.90;;;;;;4953115;29;20364;-81
2023/12/09 08:43:31;;;;;;;88.10;24.97;;;-2.00;99.90;;;;;;4954113;28;20685;-81
2023/12/09 08:46:18;;;;;;;92.83;23.27;;;-2.00;99.90;;;;;;4939371;29;20194;-81
2023/12/09 08:49:06;;;;;;;94.40;24.63;;;-1.80;99.90;;;;;;4953179;29;20417;-81
2023/12/09 08:51:53;;;;;;;84.20;24.03;;;-1.90;99.90;;;;;;4952335;29;20202;-81
2023/12/09 08:54:40;;;;;;;104.47;25.67;;;-2.00;99.90;;;;;;4953196;29;20219;-81
2023/12/09 08:57:28;;;;;;;96.77;25.23;;;-1.80;99.90;;;;;;4952722;29;20234;-81
2023/12/09 09:00:20;;;;;;;93.97;24.60;;;-1.80;99.90;;;;;;4939927;29;20210;-81
2023/12/09 09:03:09;;;;;;;97.43;25.93;;;-1.80;99.90;;;;;;4939650;29;20254;-82
2023/12/09 09:05:57;;;;;;;95.03;25.77;;;-1.70;99.90;;;;;;4952448;29;20206;-83
2023/12/09 09:08:45;;;;;;;75.87;23.43;;;-1.70;99.90;;;;;;4954142;28;20194;-81
2023/12/09 09:11:32;;;;;;;90.70;24.83;;;-1.60;99.90;;;;;;4941838;29;20215;-81
2023/12/09 09:14:20;;;;;;;91.43;24.97;;;-1.60;99.90;;;;;;4943421;29;20198;-81
2023/12/09 09:17:07;;;;;;;80.33;24.73;;;-1.60;99.90;;;;;;4958492;28;20202;-80
2023/12/09 09:19:55;;;;;;;96.70;24.80;;;-1.50;99.90;;;;;;4958540;28;20288;-81
2023/12/09 09:22:42;;;;;;;89.40;25.13;;;-1.50;99.90;;;;;;4944380;28;20190;-81
2023/12/09 09:25:33;;;;;;;82.20;23.93;;;-1.50;99.90;;;;;;4958079;28;20696;-81
2023/12/09 09:28:20;;;;;;;87.40;23.63;;;-1.60;99.90;;;;;;4957622;28;20231;-80
2023/12/09 09:31:08;;;;;;;96.70;24.63;;;-1.60;99.90;;;;;;4956743;29;20202;-81
2023/12/09 09:33:55;;;;;;;80.93;24.57;;;-1.60;99.90;;;;;;4963138;28;20197;-81
2023/12/09 09:36:45;;;;;;;92.23;24.83;;;-1.50;99.90;;;;;;4959714;28;20229;-80
2023/12/09 09:39:33;;;;;;;84.60;24.27;;;-1.50;99.90;;;;;;4942642;29;20621;-81
2023/12/09 09:42:47;;;;;;;78.93;23.63;;;-1.40;99.90;;;;;;4944454;29;20570;-81
2023/12/09 09:45:36;;;;;;;81.53;22.63;;;-1.30;99.90;;;;;;4866340;29;20200;-80
2023/12/09 09:48:24;;;;;;;80.53;23.17;;;-1.30;99.90;;;;;;4878819;29;20202;-81
2023/12/09 09:51:16;;;;;;;75.17;22.77;;;-1.20;99.90;;;;;;4879960;29;20230;-80
2023/12/09 09:54:21;;;;;;;77.83;23.10;;;-1.20;99.90;;;;;;4879437;29;20680;-80
2023/12/09 09:57:11;;;;;;;77.23;23.70;;;-1.20;99.90;;;;;;4878544;29;20673;-80
2023/12/09 09:59:59;;;;;;;82.93;24.57;;;-1.10;99.90;;;;;;4866740;29;20213;-80
2023/12/09 10:02:49;;;;;;;76.20;23.27;;;-1.00;99.90;;;;;;4878896;29;20217;-80
2023/12/09 10:05:40;;;;;;;70.87;22.93;;;-1.00;99.90;;;;;;4867105;29;20698;-80
2023/12/09 10:08:29;;;;;;;80.70;22.70;;;-1.00;99.90;;;;;;4878564;29;20287;-81
2023/12/09 10:11:16;;;;;;;80.60;23.63;;;-1.00;99.90;;;;;;4878581;29;20248;-80
2023/12/09 10:14:04;;;;;;;71.33;22.87;;;-0.90;99.90;;;;;;4878316;29;20637;-81
2023/12/09 10:16:52;;;;;;;74.00;22.30;;;-0.80;99.90;;;;;;4878818;29;20294;-80
2023/12/09 10:19:39;;;;;;;69.07;23.57;;;-0.90;99.90;;;;;;4879397;29;20332;-80
2023/12/09 10:22:28;;;;;;;75.70;22.93;;;-0.90;99.90;;;;;;4920550;29;20781;-80
2023/12/09 10:25:22;;;;;;;83.77;23.90;;;-0.90;99.90;;;;;;4956206;29;20205;-81
2023/12/09 10:28:10;;;;;;;79.30;23.43;;;-0.90;99.90;;;;;;4943043;29;20670;-80
2023/12/09 10:30:57;;;;;;;72.80;23.23;;;-0.90;99.90;;;;;;4955594;29;20282;-80
2023/12/09 10:33:45;;;;;;;80.00;23.67;;;-0.80;99.90;;;;;;4955512;29;20202;-80
2023/12/09 10:36:32;;;;;;;76.20;23.90;;;-0.80;99.90;;;;;;4955843;29;20321;-80
2023/12/09 10:39:20;;;;;;;81.30;24.67;;;-0.80;99.90;;;;;;4955459;29;20199;-80
2023/12/09 10:42:09;;;;;;;84.33;25.17;;;-0.80;99.90;;;;;;4956857;28;20350;-80
2023/12/09 10:44:56;;;;;;;76.80;23.47;;;-0.80;99.90;;;;;;4956080;29;20197;-80
2023/12/09 10:47:44;;;;;;;77.03;23.63;;;-0.80;99.90;;;;;;4942016;29;20231;-80
2023/12/09 10:50:33;;;;;;;76.20;24.37;;;-0.80;99.90;;;;;;4956484;28;20278;-80
2023/12/09 10:53:20;;;;;;;87.87;24.90;;;-0.80;99.90;;;;;;4941751;29;20202;-81
2023/12/09 10:56:08;;;;;;;76.97;24.63;;;-0.60;99.90;;;;;;4954628;29;20242;-80
2023/12/09 10:58:56;;;;;;;74.90;24.93;;;-0.60;99.90;;;;;;4955220;29;20204;-81
2023/12/09 11:01:47;;;;;;;79.97;24.73;;;-0.50;99.90;;;;;;4955304;29;20272;-81
2023/12/09 11:04:36;;;;;;;82.17;25.57;;;-0.60;99.90;;;;;;4953876;29;20205;-81
2023/12/09 11:07:28;;;;;;;88.43;25.80;;;-0.60;99.90;;;;;;4941473;29;20209;-81
2023/12/09 11:10:16;;;;;;;84.73;24.50;;;-0.50;99.90;;;;;;4940872;29;20204;-81
2023/12/09 11:13:03;;;;;;;81.80;25.43;;;-0.50;99.90;;;;;;4955150;29;20232;-81
2023/12/09 11:16:08;;;;;;;88.17;26.50;;;-0.50;99.90;;;;;;4955522;28;20308;-80
2023/12/09 11:18:57;;;;;;;76.83;24.63;;;-0.50;99.90;;;;;;4955257;29;20548;-80
2023/12/09 11:21:46;;;;;;;81.10;24.47;;;-0.40;99.90;;;;;;4954808;29;20315;-81
2023/12/09 11:24:34;;;;;;;79.43;25.70;;;-0.40;99.90;;;;;;4954631;29;20255;-81
2023/12/09 11:27:22;;;;;;;81.27;25.60;;;-0.40;99.90;;;;;;4954422;29;20221;-81
2023/12/09 11:30:28;;;;;;;76.03;24.97;;;-0.30;99.90;;;;;;4955718;28;20288;-81
2023/12/09 11:33:16;;;;;;;80.77;24.70;;;-0.30;99.90;;;;;;4939819;29;20188;-81
2023/12/09 11:36:04;;;;;;;71.57;24.40;;;-0.30;99.90;;;;;;4940869;29;20226;-81
2023/12/09 11:38:52;;;;;;;79.03;25.97;;;-0.30;99.90;;;;;;4954353;29;20206;-81
2023/12/09 11:41:40;;;;;;;75.97;24.90;;;-0.30;99.90;;;;;;4940120;29;20319;-82
2023/12/09 11:44:28;;;;;;;72.60;23.90;;;-0.30;99.90;;;;;;4955078;29;20205;-82
2023/12/09 11:47:18;;;;;;;74.90;25.13;;;-0.30;99.90;;;;;;4953703;29;20197;-82
2023/12/09 11:50:07;;;;;;;73.83;23.67;;;-0.30;99.90;;;;;;4954129;29;20200;-81
2023/12/09 11:52:55;;;;;;;76.33;24.73;;;-0.40;99.90;;;;;;4940917;29;20221;-81
2023/12/09 11:55:44;;;;;;;71.57;24.00;;;-0.40;99.90;;;;;;4953883;29;20239;-81
2023/12/09 11:58:32;;;;;;;68.77;25.63;;;-0.40;99.90;;;;;;4940304;29;20717;-81
2023/12/09 12:01:21;;;;;;;71.10;25.13;;;-0.30;99.90;;;;;;4954553;29;20241;-81
2023/12/09 12:04:08;;;;;;;71.90;25.30;;;-0.20;99.90;;;;;;4954384;29;20204;-81
2023/12/09 12:06:56;;;;;;;73.50;24.67;;;-0.20;99.90;;;;;;4954128;29;20655;-81
2023/12/09 12:09:43;;;;;;;74.27;24.30;;;-0.30;99.90;;;;;;4953401;29;20258;-81
2023/12/09 12:12:31;;;;;;;73.00;25.37;;;-0.20;99.90;;;;;;4939793;29;20671;-81
2023/12/09 12:15:19;;;;;;;67.13;24.80;;;-0.20;99.90;;;;;;4953426;29;20202;-81
2023/12/09 12:18:07;;;;;;;68.27;24.97;;;-0.20;99.90;;;;;;4953848;29;20284;-81
2023/12/09 12:20:56;;;;;;;67.33;25.17;;;-0.10;99.90;;;;;;4953288;29;20200;-81
2023/12/09 12:23:43;;;;;;;69.17;23.90;;;-0.10;99.90;;;;;;4955984;28;20280;-81
2023/12/09 12:26:31;;;;;;;64.57;23.57;;;-0.10;99.90;;;;;;4940617;28;20219;-81
2023/12/09 12:29:19;;;;;;;65.23;24.50;;;-0.10;99.90;;;;;;4955100;28;20219;-78
2023/12/09 12:32:08;;;;;;;62.13;24.23;;;0.00;99.90;;;;;;4953697;29;20734;-81
2023/12/09 12:34:55;;;;;;;67.83;25.07;;;0.10;99.90;;;;;;4954047;29;20195;-81
2023/12/09 12:37:43;;;;;;;66.57;24.90;;;0.10;99.90;;;;;;4953708;29;20597;-81
2023/12/09 12:40:31;;;;;;;67.73;23.70;;;0.10;99.90;;;;;;4954428;28;20202;-82
2023/12/09 12:43:19;;;;;;;64.60;23.60;;;0.00;99.90;;;;;;4952637;29;20637;-81
2023/12/09 12:46:09;;;;;;;62.53;24.93;;;0.00;99.90;;;;;;4939768;29;20289;-81
2023/12/09 12:48:57;;;;;;;64.53;24.70;;;0.10;99.90;;;;;;4954734;28;20203;-82
2023/12/09 12:51:44;;;;;;;62.80;24.37;;;0.00;99.90;;;;;;4953025;29;20235;-82
2023/12/09 12:54:32;;;;;;;62.10;24.13;;;0.00;99.90;;;;;;4953580;29;20210;-81
2023/12/09 12:57:20;;;;;;;66.73;23.93;;;0.10;99.90;;;;;;4953110;29;20330;-81
2023/12/09 13:00:07;;;;;;;60.70;23.53;;;-0.10;99.90;;;;;;4939652;29;20201;-80
2023/12/09 13:02:59;;;;;;;64.17;24.27;;;-0.10;99.90;;;;;;4953291;29;20221;-81
2023/12/09 13:05:46;;;;;;;63.90;23.67;;;-0.10;99.90;;;;;;4952735;29;20200;-81
2023/12/09 13:08:34;;;;;;;64.43;25.30;;;-0.10;99.90;;;;;;4952720;29;20623;-81
2023/12/09 13:11:22;;;;;;;62.47;25.37;;;-0.10;99.90;;;;;;4952824;29;20227;-80
2023/12/09 13:14:09;;;;;;;57.63;24.60;;;-0.10;99.90;;;;;;4952774;29;20282;-82
2023/12/09 13:16:57;;;;;;;59.77;24.17;;;-0.10;99.90;;;;;;4953304;29;20689;-81
2023/12/09 13:19:44;;;;;;;62.13;24.77;;;-0.10;99.90;;;;;;4952672;29;20611;-82
2023/12/09 13:22:32;;;;;;;60.47;25.03;;;-0.20;99.90;;;;;;4952845;29;20249;-81
2023/12/09 13:25:19;;;;;;;67.77;25.07;;;-0.20;99.90;;;;;;4939523;29;20355;-82
2023/12/09 13:28:07;;;;;;;62.77;24.90;;;-0.20;99.90;;;;;;4952482;29;20205;-81
2023/12/09 13:30:55;;;;;;;64.27;25.37;;;-0.20;99.90;;;;;;4953221;29;20206;-82
2023/12/09 13:33:42;;;;;;;61.77;24.13;;;-0.20;99.90;;;;;;4952105;29;20572;-82
2023/12/09 13:36:31;;;;;;;60.00;23.13;;;-0.20;99.90;;;;;;4952658;29;20226;-81
2023/12/09 13:39:25;;;;;;;60.90;24.03;;;-0.20;99.90;;;;;;4940052;29;20574;-82
2023/12/09 13:42:12;;;;;;;55.33;24.03;;;-0.20;99.90;;;;;;4951616;29;20225;-82
2023/12/09 13:45:00;;;;;;;60.00;24.70;;;-0.20;99.90;;;;;;4954349;28;20284;-81
2023/12/09 13:47:48;;;;;;;59.47;23.83;;;-0.20;99.90;;;;;;4952182;29;20210;-82
2023/12/09 13:50:39;;;;;;;58.67;23.70;;;-0.20;99.90;;;;;;4939498;29;20643;-81
2023/12/09 13:53:27;;;;;;;58.90;24.33;;;-0.30;99.90;;;;;;4939493;29;20204;-82
2023/12/09 13:56:15;;;;;;;60.37;24.90;;;-0.20;99.90;;;;;;4954856;28;20718;-81
2023/12/09 13:59:03;;;;;;;59.10;24.57;;;-0.10;99.90;;;;;;4943290;28;20205;-81
2023/12/09 14:01:51;;;;;;;59.63;25.17;;;-0.20;99.90;;;;;;4957602;28;20716;-82
2023/12/09 14:04:39;;;;;;;59.30;24.57;;;-0.20;99.90;;;;;;4955328;29;20648;-83
2023/12/09 14:07:26;;;;;;;62.00;25.00;;;-0.30;99.90;;;;;;4955655;29;20234;-84
2023/12/09 14:10:14;;;;;;;59.80;24.43;;;-0.30;99.90;;;;;;4957149;28;20211;-84
2023/12/09 14:13:01;;;;;;;58.10;23.73;;;-0.20;99.90;;;;;;4955335;29;20276;-86
2023/12/09 14:15:49;;;;;;;62.83;24.83;;;-0.30;99.90;;;;;;4956156;29;20236;-82